sensor_id;sensor_type;location;lat;lon;timestamp;pressure;altitude;pressure_sealevel;temperature;humidity
69796;BME280;57073;45.650;9.612;2023-06-10T00:00:59;98857.56;;;21.55;54.75
69796;BME280;57073;45.650;9.612;2023-06-10T00:06:00;98856.44;;;21.64;55.20
69796;BME280;57073;45.650;9.612;2023-06-10T00:11:00;98855.16;;;21.71;54.76
69796;BME280;57073;45.650;9.612;2023-06-10T00:16:00;98857.41;;;21.68;55.09
69796;BME280;57073;45.650;9.612;2023-06-10T00:21:01;98854.03;;;21.63;54.53
69796;BME280;57073;45.650;9.612;2023-06-10T00:26:05;98847.06;;;21.65;53.94
69796;BME280;57073;45.650;9.612;2023-06-10T00:31:05;98852.91;;;21.55;54.22
69796;BME280;57073;45.650;9.612;2023-06-10T00:36:06;98848.53;;;21.54;53.98
69796;BME280;57073;45.650;9.612;2023-06-10T00:41:06;98843.47;;;21.39;54.37
69796;BME280;57073;45.650;9.612;2023-06-10T00:46:07;98846.53;;;21.37;55.13
69796;BME280;57073;45.650;9.612;2023-06-10T00:51:08;98844.28;;;21.39;54.91
69796;BME280;57073;45.650;9.612;2023-06-10T00:56:13;98846.22;;;21.39;55.12
69796;BME280;57073;45.650;9.612;2023-06-10T01:01:13;98842.47;;;21.35;55.38
69796;BME280;57073;45.650;9.612;2023-06-10T01:11:29;98844.97;;;21.54;54.92
69796;BME280;57073;45.650;9.612;2023-06-10T01:16:34;98844.00;;;21.49;54.54
69796;BME280;57073;45.650;9.612;2023-06-10T01:21:37;98843.66;;;21.42;54.05
69796;BME280;57073;45.650;9.612;2023-06-10T01:26:40;98831.38;;;21.40;54.62
69796;BME280;57073;45.650;9.612;2023-06-10T01:32:18;98838.97;;;21.43;54.09
69796;BME280;57073;45.650;9.612;2023-06-10T01:37:18;98839.75;;;21.43;53.05
69796;BME280;57073;45.650;9.612;2023-06-10T01:42:21;98845.22;;;21.35;53.18
69796;BME280;57073;45.650;9.612;2023-06-10T01:47:21;98840.22;;;21.28;53.78
69796;BME280;57073;45.650;9.612;2023-06-10T01:52:22;98834.91;;;21.32;54.01
69796;BME280;57073;45.650;9.612;2023-06-10T01:57:22;98836.66;;;21.19;54.55
69796;BME280;57073;45.650;9.612;2023-06-10T02:02:22;98831.78;;;21.07;54.98
69796;BME280;57073;45.650;9.612;2023-06-10T02:07:24;98828.91;;;21.12;55.41
69796;BME280;57073;45.650;9.612;2023-06-10T02:12:25;98820.66;;;21.03;55.47
69796;BME280;57073;45.650;9.612;2023-06-10T02:17:25;98817.44;;;21.10;54.53
69796;BME280;57073;45.650;9.612;2023-06-10T02:22:26;98812.44;;;21.12;53.74
69796;BME280;57073;45.650;9.612;2023-06-10T02:27:27;98815.03;;;21.08;53.48
69796;BME280;57073;45.650;9.612;2023-06-10T02:32:27;98808.72;;;20.99;54.05
69796;BME280;57073;45.650;9.612;2023-06-10T02:37:28;98807.53;;;20.83;54.21
69796;BME280;57073;45.650;9.612;2023-06-10T02:42:28;98807.56;;;20.91;54.07
69796;BME280;57073;45.650;9.612;2023-06-10T02:47:29;98805.31;;;20.94;53.81
69796;BME280;57073;45.650;9.612;2023-06-10T02:52:29;98786.09;;;20.85;53.59
69796;BME280;57073;45.650;9.612;2023-06-10T02:57:31;98785.78;;;20.86;54.04
69796;BME280;57073;45.650;9.612;2023-06-10T03:02:31;98789.91;;;20.75;54.25
69796;BME280;57073;45.650;9.612;2023-06-10T03:07:32;98806.53;;;20.79;54.75
69796;BME280;57073;45.650;9.612;2023-06-10T03:12:32;98798.50;;;20.82;54.63
69796;BME280;57073;45.650;9.612;2023-06-10T03:17:32;98800.16;;;20.92;54.12
69796;BME280;57073;45.650;9.612;2023-06-10T03:22:33;98801.59;;;20.89;53.49
69796;BME280;57073;45.650;9.612;2023-06-10T03:27:33;98799.78;;;20.85;53.96
69796;BME280;57073;45.650;9.612;2023-06-10T03:32:35;98804.59;;;20.79;54.71
69796;BME280;57073;45.650;9.612;2023-06-10T03:37:36;98801.75;;;20.84;55.20
69796;BME280;57073;45.650;9.612;2023-06-10T03:42:37;98802.78;;;20.74;55.91
69796;BME280;57073;45.650;9.612;2023-06-10T03:47:37;98801.81;;;20.70;55.92
69796;BME280;57073;45.650;9.612;2023-06-10T03:52:38;98820.94;;;20.62;56.09
69796;BME280;57073;45.650;9.612;2023-06-10T03:57:38;98811.00;;;20.74;56.25
69796;BME280;57073;45.650;9.612;2023-06-10T04:02:38;98807.91;;;20.67;56.25
69796;BME280;57073;45.650;9.612;2023-06-10T04:07:45;98807.59;;;20.69;55.34
69796;BME280;57073;45.650;9.612;2023-06-10T04:12:48;98809.34;;;20.65;56.35
69796;BME280;57073;45.650;9.612;2023-06-10T04:17:48;98802.91;;;20.69;56.61
69796;BME280;57073;45.650;9.612;2023-06-10T04:22:49;98806.56;;;20.87;55.82
69796;BME280;57073;45.650;9.612;2023-06-10T04:27:49;98804.72;;;20.74;55.76
69796;BME280;57073;45.650;9.612;2023-06-10T04:32:50;98806.50;;;20.70;55.69
69796;BME280;57073;45.650;9.612;2023-06-10T04:37:50;98811.50;;;20.77;55.73
69796;BME280;57073;45.650;9.612;2023-06-10T04:42:50;98813.75;;;20.74;55.48
69796;BME280;57073;45.650;9.612;2023-06-10T04:47:51;98810.06;;;20.79;54.99
69796;BME280;57073;45.650;9.612;2023-06-10T04:52:51;98815.53;;;20.79;55.85
69796;BME280;57073;45.650;9.612;2023-06-10T04:57:52;98806.91;;;20.95;55.08
69796;BME280;57073;45.650;9.612;2023-06-10T05:02:52;98811.91;;;20.92;54.47
69796;BME280;57073;45.650;9.612;2023-06-10T05:07:52;98813.81;;;20.83;54.72
69796;BME280;57073;45.650;9.612;2023-06-10T05:12:53;98813.88;;;21.01;55.05
69796;BME280;57073;45.650;9.612;2023-06-10T05:17:53;98805.50;;;21.06;54.95
69796;BME280;57073;45.650;9.612;2023-06-10T05:22:53;98812.59;;;21.07;55.06
69796;BME280;57073;45.650;9.612;2023-06-10T05:27:54;98816.81;;;21.22;53.82
69796;BME280;57073;45.650;9.612;2023-06-10T05:32:54;98815.81;;;21.09;54.91
69796;BME280;57073;45.650;9.612;2023-06-10T05:37:56;98817.47;;;21.19;54.97
69796;BME280;57073;45.650;9.612;2023-06-10T05:42:56;98821.22;;;21.32;55.09
69796;BME280;57073;45.650;9.612;2023-06-10T05:47:57;98816.69;;;21.36;55.31
69796;BME280;57073;45.650;9.612;2023-06-10T05:52:57;98811.38;;;21.39;54.71
69796;BME280;57073;45.650;9.612;2023-06-10T05:57:59;98818.16;;;21.50;53.95
69796;BME280;57073;45.650;9.612;2023-06-10T06:03:00;98824.31;;;21.65;53.79
69796;BME280;57073;45.650;9.612;2023-06-10T06:08:01;98825.78;;;21.62;54.30
69796;BME280;57073;45.650;9.612;2023-06-10T06:13:02;98829.50;;;21.84;53.19
69796;BME280;57073;45.650;9.612;2023-06-10T06:18:03;98830.78;;;21.86;52.71
69796;BME280;57073;45.650;9.612;2023-06-10T06:23:03;98836.44;;;21.90;53.38
69796;BME280;57073;45.650;9.612;2023-06-10T06:28:05;98839.66;;;22.10;52.88
69796;BME280;57073;45.650;9.612;2023-06-10T06:33:06;98844.34;;;22.27;52.03
69796;BME280;57073;45.650;9.612;2023-06-10T06:38:06;98851.59;;;22.22;51.21
69796;BME280;57073;45.650;9.612;2023-06-10T06:43:06;98845.28;;;22.31;51.08
69796;BME280;57073;45.650;9.612;2023-06-10T06:48:07;98847.06;;;22.35;52.21
69796;BME280;57073;45.650;9.612;2023-06-10T06:53:08;98845.75;;;22.50;52.33
69796;BME280;57073;45.650;9.612;2023-06-10T06:58:08;98840.19;;;22.76;51.43
69796;BME280;57073;45.650;9.612;2023-06-10T07:03:08;98847.88;;;22.92;50.53
69796;BME280;57073;45.650;9.612;2023-06-10T07:08:09;98848.66;;;23.01;50.51
69796;BME280;57073;45.650;9.612;2023-06-10T07:13:09;98847.50;;;23.11;50.04
69796;BME280;57073;45.650;9.612;2023-06-10T07:18:10;98839.13;;;23.28;50.00
69796;BME280;57073;45.650;9.612;2023-06-10T07:23:10;98842.91;;;23.24;49.29
69796;BME280;57073;45.650;9.612;2023-06-10T07:28:11;98840.44;;;23.31;49.74
69796;BME280;57073;45.650;9.612;2023-06-10T07:33:11;98847.16;;;23.42;49.87
69796;BME280;57073;45.650;9.612;2023-06-10T07:38:12;98847.69;;;23.56;50.34
69796;BME280;57073;45.650;9.612;2023-06-10T07:43:12;98839.44;;;23.56;49.43
69796;BME280;57073;45.650;9.612;2023-06-10T07:48:12;98838.38;;;23.70;49.19
69796;BME280;57073;45.650;9.612;2023-06-10T07:53:13;98832.97;;;23.82;48.44
69796;BME280;57073;45.650;9.612;2023-06-10T07:58:13;98832.31;;;23.97;48.14
69796;BME280;57073;45.650;9.612;2023-06-10T08:03:13;98833.03;;;23.94;48.46
69796;BME280;57073;45.650;9.612;2023-06-10T08:08:14;98823.06;;;24.35;48.47
69796;BME280;57073;45.650;9.612;2023-06-10T08:13:14;98827.63;;;24.65;47.58
69796;BME280;57073;45.650;9.612;2023-06-10T08:18:15;98818.88;;;24.63;46.39
69796;BME280;57073;45.650;9.612;2023-06-10T08:23:15;98824.88;;;24.77;46.30
69796;BME280;57073;45.650;9.612;2023-06-10T08:28:15;98827.97;;;25.37;46.61
69796;BME280;57073;45.650;9.612;2023-06-10T08:33:47;98829.81;;;25.58;44.58
69796;BME280;57073;45.650;9.612;2023-06-10T08:38:49;98828.66;;;25.59;44.60
69796;BME280;57073;45.650;9.612;2023-06-10T08:44:11;98830.34;;;25.76;43.93
69796;BME280;57073;45.650;9.612;2023-06-10T08:49:18;98832.00;;;25.93;42.83
69796;BME280;57073;45.650;9.612;2023-06-10T08:54:21;98833.56;;;26.06;42.18
69796;BME280;57073;45.650;9.612;2023-06-10T08:59:24;98823.47;;;26.26;42.10
69796;BME280;57073;45.650;9.612;2023-06-10T09:04:25;98830.66;;;26.43;41.60
69796;BME280;57073;45.650;9.612;2023-06-10T09:09:28;98834.72;;;26.33;41.47
69796;BME280;57073;45.650;9.612;2023-06-10T09:14:29;98834.13;;;26.56;42.30
69796;BME280;57073;45.650;9.612;2023-06-10T09:19:29;98837.78;;;26.60;41.98
69796;BME280;57073;45.650;9.612;2023-06-10T09:24:30;98832.25;;;26.28;41.61
69796;BME280;57073;45.650;9.612;2023-06-10T09:29:31;98833.41;;;26.43;41.76
69796;BME280;57073;45.650;9.612;2023-06-10T09:34:31;98834.81;;;26.37;42.07
69796;BME280;57073;45.650;9.612;2023-06-10T09:39:31;98823.78;;;26.53;42.09
69796;BME280;57073;45.650;9.612;2023-06-10T09:44:32;98832.59;;;26.27;42.39
69796;BME280;57073;45.650;9.612;2023-06-10T09:49:32;98836.88;;;26.40;42.59
69796;BME280;57073;45.650;9.612;2023-06-10T09:54:32;98841.22;;;26.25;43.02
69796;BME280;57073;45.650;9.612;2023-06-10T09:59:33;98825.00;;;26.23;42.35
69796;BME280;57073;45.650;9.612;2023-06-10T10:04:35;98829.97;;;26.18;41.82
69796;BME280;57073;45.650;9.612;2023-06-10T10:09:40;98822.00;;;26.60;42.18
69796;BME280;57073;45.650;9.612;2023-06-10T10:14:46;98824.00;;;26.76;41.64
69796;BME280;57073;45.650;9.612;2023-06-10T10:19:50;98815.63;;;27.04;41.89
69796;BME280;57073;45.650;9.612;2023-06-10T10:24:53;98821.53;;;27.22;42.03
69796;BME280;57073;45.650;9.612;2023-06-10T10:29:58;98811.09;;;27.31;40.83
69796;BME280;57073;45.650;9.612;2023-06-10T10:40:00;98805.44;;;27.44;39.95
69796;BME280;57073;45.650;9.612;2023-06-10T10:45:02;98797.56;;;27.46;38.95
69796;BME280;57073;45.650;9.612;2023-06-10T10:50:13;98791.44;;;27.36;39.39
69796;BME280;57073;45.650;9.612;2023-06-10T10:55:14;98799.34;;;27.54;40.29
69796;BME280;57073;45.650;9.612;2023-06-10T11:00:27;98793.88;;;27.57;39.57
69796;BME280;57073;45.650;9.612;2023-06-10T11:05:39;98787.69;;;27.64;38.90
69796;BME280;57073;45.650;9.612;2023-06-10T11:10:41;98781.78;;;27.46;39.10
69796;BME280;57073;45.650;9.612;2023-06-10T11:15:46;98778.59;;;27.28;38.38
69796;BME280;57073;45.650;9.612;2023-06-10T11:25:50;98788.66;;;26.85;39.78
69796;BME280;57073;45.650;9.612;2023-06-10T11:30:57;98797.59;;;26.78;39.92
69796;BME280;57073;45.650;9.612;2023-06-10T11:35:57;98798.50;;;26.83;41.88
69796;BME280;57073;45.650;9.612;2023-06-10T11:41:01;98792.38;;;27.09;40.99
69796;BME280;57073;45.650;9.612;2023-06-10T11:46:02;98788.13;;;26.95;41.07
69796;BME280;57073;45.650;9.612;2023-06-10T11:51:08;98780.63;;;26.96;41.14
69796;BME280;57073;45.650;9.612;2023-06-10T11:56:09;98786.75;;;27.05;40.93
69796;BME280;57073;45.650;9.612;2023-06-10T12:01:09;98774.03;;;27.00;41.20
69796;BME280;57073;45.650;9.612;2023-06-10T12:06:09;98767.75;;;27.04;41.11
69796;BME280;57073;45.650;9.612;2023-06-10T12:11:10;98754.75;;;27.04;40.65
69796;BME280;57073;45.650;9.612;2023-06-10T12:16:11;98746.97;;;27.10;41.09
69796;BME280;57073;45.650;9.612;2023-06-10T12:21:24;98754.41;;;26.90;40.34
69796;BME280;57073;45.650;9.612;2023-06-10T12:26:43;98754.78;;;26.88;40.67
69796;BME280;57073;45.650;9.612;2023-06-10T12:32:03;98747.06;;;26.66;40.91
69796;BME280;57073;45.650;9.612;2023-06-10T12:37:10;98750.41;;;26.55;41.21
69796;BME280;57073;45.650;9.612;2023-06-10T12:42:13;98743.91;;;26.32;41.72
69796;BME280;57073;45.650;9.612;2023-06-10T12:47:14;98745.38;;;26.29;42.42
69796;BME280;57073;45.650;9.612;2023-06-10T12:52:14;98742.28;;;26.31;42.94
69796;BME280;57073;45.650;9.612;2023-06-10T12:57:14;98728.63;;;26.38;43.43
69796;BME280;57073;45.650;9.612;2023-06-10T13:02:15;98731.06;;;26.39;43.04
69796;BME280;57073;45.650;9.612;2023-06-10T13:07:15;98726.03;;;26.61;42.60
69796;BME280;57073;45.650;9.612;2023-06-10T13:12:16;98734.97;;;26.70;42.16
69796;BME280;57073;45.650;9.612;2023-06-10T13:17:17;98728.81;;;26.45;42.54
69796;BME280;57073;45.650;9.612;2023-06-10T13:22:18;98729.88;;;26.56;42.45
69796;BME280;57073;45.650;9.612;2023-06-10T13:27:20;98721.47;;;26.69;43.19
69796;BME280;57073;45.650;9.612;2023-06-10T13:32:20;98725.22;;;26.60;42.57
69796;BME280;57073;45.650;9.612;2023-06-10T13:37:21;98718.53;;;26.61;42.83
69796;BME280;57073;45.650;9.612;2023-06-10T13:42:21;98692.13;;;26.64;42.67
69796;BME280;57073;45.650;9.612;2023-06-10T13:47:22;98673.53;;;26.77;42.23
69796;BME280;57073;45.650;9.612;2023-06-10T13:52:22;98676.34;;;26.65;42.06
69796;BME280;57073;45.650;9.612;2023-06-10T13:57:22;98688.75;;;26.55;40.98
69796;BME280;57073;45.650;9.612;2023-06-10T14:02:23;98684.13;;;26.59;42.02
69796;BME280;57073;45.650;9.612;2023-06-10T14:07:23;98687.22;;;26.73;41.43
69796;BME280;57073;45.650;9.612;2023-06-10T14:12:26;98698.09;;;26.82;41.49
69796;BME280;57073;45.650;9.612;2023-06-10T14:17:26;98692.13;;;26.80;40.83
69796;BME280;57073;45.650;9.612;2023-06-10T14:22:26;98683.13;;;26.83;40.96
69796;BME280;57073;45.650;9.612;2023-06-10T14:27:27;98671.19;;;26.79;40.60
69796;BME280;57073;45.650;9.612;2023-06-10T14:32:27;98662.59;;;26.84;40.16
69796;BME280;57073;45.650;9.612;2023-06-10T14:37:27;98652.91;;;26.58;40.15
69796;BME280;57073;45.650;9.612;2023-06-10T14:42:28;98644.41;;;26.32;40.16
69796;BME280;57073;45.650;9.612;2023-06-10T14:47:28;98650.63;;;26.44;40.83
69796;BME280;57073;45.650;9.612;2023-06-10T14:52:28;98631.53;;;26.55;41.21
69796;BME280;57073;45.650;9.612;2023-06-10T14:57:29;98631.06;;;26.53;41.30
69796;BME280;57073;45.650;9.612;2023-06-10T15:02:29;98629.31;;;26.45;41.11
69796;BME280;57073;45.650;9.612;2023-06-10T15:07:29;98627.41;;;26.49;41.39
69796;BME280;57073;45.650;9.612;2023-06-10T15:12:30;98627.09;;;26.35;41.23
69796;BME280;57073;45.650;9.612;2023-06-10T15:17:30;98626.19;;;26.47;41.59
69796;BME280;57073;45.650;9.612;2023-06-10T15:22:31;98614.34;;;26.46;40.92
69796;BME280;57073;45.650;9.612;2023-06-10T15:27:31;98624.38;;;26.54;41.11
69796;BME280;57073;45.650;9.612;2023-06-10T15:32:31;98614.19;;;26.58;40.78
69796;BME280;57073;45.650;9.612;2023-06-10T15:37:31;98622.50;;;26.58;41.29
69796;BME280;57073;45.650;9.612;2023-06-10T15:42:32;98621.84;;;26.65;41.07
69796;BME280;57073;45.650;9.612;2023-06-10T15:47:32;98626.66;;;26.68;41.11
69796;BME280;57073;45.650;9.612;2023-06-10T15:52:32;98627.53;;;26.72;40.96
69796;BME280;57073;45.650;9.612;2023-06-10T15:57:33;98624.28;;;26.51;40.41
69796;BME280;57073;45.650;9.612;2023-06-10T16:02:33;98609.25;;;26.48;41.05
69796;BME280;57073;45.650;9.612;2023-06-10T16:07:34;98609.75;;;26.54;41.33
69796;BME280;57073;45.650;9.612;2023-06-10T16:12:34;98614.34;;;26.46;41.13
69796;BME280;57073;45.650;9.612;2023-06-10T16:17:34;98608.94;;;26.53;41.27
69796;BME280;57073;45.650;9.612;2023-06-10T16:22:35;98608.41;;;26.48;41.19
69796;BME280;57073;45.650;9.612;2023-06-10T16:27:35;98597.41;;;26.32;41.52
69796;BME280;57073;45.650;9.612;2023-06-10T16:32:35;98606.84;;;26.31;41.66
69796;BME280;57073;45.650;9.612;2023-06-10T16:37:36;98603.94;;;26.23;41.38
69796;BME280;57073;45.650;9.612;2023-06-10T16:42:36;98608.94;;;26.18;41.66
69796;BME280;57073;45.650;9.612;2023-06-10T16:47:36;98623.19;;;26.20;41.75
69796;BME280;57073;45.650;9.612;2023-06-10T16:52:37;98623.88;;;26.17;41.45
69796;BME280;57073;45.650;9.612;2023-06-10T16:57:37;98634.75;;;26.10;41.64
69796;BME280;57073;45.650;9.612;2023-06-10T17:02:38;98630.75;;;26.07;41.67
69796;BME280;57073;45.650;9.612;2023-06-10T17:07:38;98629.31;;;25.97;42.31
69796;BME280;57073;45.650;9.612;2023-06-10T17:12:38;98641.69;;;26.03;42.92
69796;BME280;57073;45.650;9.612;2023-06-10T17:17:39;98635.72;;;26.01;42.41
69796;BME280;57073;45.650;9.612;2023-06-10T17:22:39;98644.03;;;26.01;42.51
69796;BME280;57073;45.650;9.612;2023-06-10T17:27:40;98642.22;;;25.93;42.57
69796;BME280;57073;45.650;9.612;2023-06-10T17:32:40;98639.66;;;25.84;43.34
69796;BME280;57073;45.650;9.612;2023-06-10T17:37:40;98649.00;;;25.52;43.49
69796;BME280;57073;45.650;9.612;2023-06-10T17:42:41;98647.72;;;25.61;44.01
69796;BME280;57073;45.650;9.612;2023-06-10T17:47:41;98648.63;;;25.65;44.17
69796;BME280;57073;45.650;9.612;2023-06-10T17:52:41;98648.41;;;25.58;44.27
69796;BME280;57073;45.650;9.612;2023-06-10T17:57:42;98646.50;;;25.46;44.33
69796;BME280;57073;45.650;9.612;2023-06-10T18:02:42;98645.25;;;25.44;44.33
69796;BME280;57073;45.650;9.612;2023-06-10T18:07:42;98644.69;;;25.38;45.20
69796;BME280;57073;45.650;9.612;2023-06-10T18:12:43;98652.63;;;25.40;44.91
69796;BME280;57073;45.650;9.612;2023-06-10T18:17:43;98641.75;;;25.31;45.29
69796;BME280;57073;45.650;9.612;2023-06-10T18:22:43;98656.31;;;25.32;45.05
69796;BME280;57073;45.650;9.612;2023-06-10T18:27:44;98655.53;;;25.03;46.24
69796;BME280;57073;45.650;9.612;2023-06-10T18:32:44;98646.00;;;25.00;45.99
69796;BME280;57073;45.650;9.612;2023-06-10T18:37:44;98652.19;;;24.97;46.21
69796;BME280;57073;45.650;9.612;2023-06-10T18:42:45;98657.00;;;24.88;46.46
69796;BME280;57073;45.650;9.612;2023-06-10T18:47:45;98667.47;;;24.82;46.25
69796;BME280;57073;45.650;9.612;2023-06-10T18:52:46;98670.81;;;24.76;47.15
69796;BME280;57073;45.650;9.612;2023-06-10T18:57:46;98681.88;;;24.63;47.32
69796;BME280;57073;45.650;9.612;2023-06-10T19:02:46;98688.78;;;24.32;48.41
69796;BME280;57073;45.650;9.612;2023-06-10T19:07:47;98702.09;;;24.55;48.00
69796;BME280;57073;45.650;9.612;2023-06-10T19:12:47;98716.72;;;24.22;49.26
69796;BME280;57073;45.650;9.612;2023-06-10T19:17:47;98724.13;;;24.43;48.46
69796;BME280;57073;45.650;9.612;2023-06-10T19:22:48;98729.16;;;24.41;48.20
69796;BME280;57073;45.650;9.612;2023-06-10T19:27:48;98749.97;;;24.38;48.35
69796;BME280;57073;45.650;9.612;2023-06-10T19:32:48;98754.19;;;24.35;48.73
69796;BME280;57073;45.650;9.612;2023-06-10T19:37:49;98761.94;;;24.09;50.09
69796;BME280;57073;45.650;9.612;2023-06-10T19:42:50;98770.69;;;23.90;49.63
69796;BME280;57073;45.650;9.612;2023-06-10T19:47:51;98781.63;;;23.99;49.65
69796;BME280;57073;45.650;9.612;2023-06-10T19:52:51;98777.56;;;23.84;50.64
69796;BME280;57073;45.650;9.612;2023-06-10T19:57:51;98794.69;;;23.89;49.66
69796;BME280;57073;45.650;9.612;2023-06-10T20:02:55;98788.84;;;23.91;50.02
69796;BME280;57073;45.650;9.612;2023-06-10T20:07:55;98788.13;;;23.94;49.28
69796;BME280;57073;45.650;9.612;2023-06-10T20:12:55;98796.84;;;23.84;47.92
69796;BME280;57073;45.650;9.612;2023-06-10T20:17:56;98805.09;;;23.63;48.54
69796;BME280;57073;45.650;9.612;2023-06-10T20:22:56;98809.81;;;23.62;47.56
69796;BME280;57073;45.650;9.612;2023-06-10T20:27:56;98803.34;;;23.58;47.15
69796;BME280;57073;45.650;9.612;2023-06-10T20:32:57;98818.84;;;23.42;47.49
69796;BME280;57073;45.650;9.612;2023-06-10T20:37:57;98825.69;;;23.27;48.13
69796;BME280;57073;45.650;9.612;2023-06-10T20:42:57;98838.88;;;23.12;47.63
69796;BME280;57073;45.650;9.612;2023-06-10T20:47:58;98843.75;;;22.68;49.10
69796;BME280;57073;45.650;9.612;2023-06-10T20:52:58;98862.13;;;22.85;48.13
69796;BME280;57073;45.650;9.612;2023-06-10T20:57:59;98882.59;;;22.49;50.50
69796;BME280;57073;45.650;9.612;2023-06-10T21:02:59;98887.00;;;22.33;51.19
69796;BME280;57073;45.650;9.612;2023-06-10T21:08:00;98893.63;;;22.05;53.87
69796;BME280;57073;45.650;9.612;2023-06-10T21:13:00;98899.88;;;21.88;55.18
69796;BME280;57073;45.650;9.612;2023-06-10T21:18:01;98905.03;;;21.64;55.60
69796;BME280;57073;45.650;9.612;2023-06-10T21:23:01;98911.19;;;21.70;55.73
69796;BME280;57073;45.650;9.612;2023-06-10T21:28:02;98898.69;;;21.46;57.46
69796;BME280;57073;45.650;9.612;2023-06-10T21:33:03;98894.25;;;20.87;60.55
69796;BME280;57073;45.650;9.612;2023-06-10T21:38:04;98891.50;;;21.19;57.52
69796;BME280;57073;45.650;9.612;2023-06-10T21:43:04;98891.28;;;21.06;56.90
69796;BME280;57073;45.650;9.612;2023-06-10T21:48:05;98889.47;;;21.02;58.81
69796;BME280;57073;45.650;9.612;2023-06-10T21:53:07;98902.31;;;21.24;58.33
69796;BME280;57073;45.650;9.612;2023-06-10T21:58:07;98917.31;;;21.26;56.20
69796;BME280;57073;45.650;9.612;2023-06-10T22:03:08;98929.75;;;21.24;55.09
69796;BME280;57073;45.650;9.612;2023-06-10T22:08:09;98945.00;;;21.16;60.77
69796;BME280;57073;45.650;9.612;2023-06-10T22:13:10;98945.13;;;21.02;61.96
69796;BME280;57073;45.650;9.612;2023-06-10T22:18:10;98949.81;;;20.34;64.55
69796;BME280;57073;45.650;9.612;2023-06-10T22:23:10;98955.28;;;19.97;62.25
69796;BME280;57073;45.650;9.612;2023-06-10T22:28:11;98957.03;;;19.80;64.16
69796;BME280;57073;45.650;9.612;2023-06-10T22:33:11;98949.03;;;19.14;64.69
69796;BME280;57073;45.650;9.612;2023-06-10T22:38:12;98941.59;;;18.87;66.53
69796;BME280;57073;45.650;9.612;2023-06-10T22:43:12;98918.44;;;18.98;68.58
69796;BME280;57073;45.650;9.612;2023-06-10T22:48:13;98924.06;;;18.74;68.74
69796;BME280;57073;45.650;9.612;2023-06-10T22:53:13;98916.69;;;19.02;68.89
69796;BME280;57073;45.650;9.612;2023-06-10T22:58:13;98908.63;;;19.25;67.47
69796;BME280;57073;45.650;9.612;2023-06-10T23:03:14;98922.09;;;19.21;67.69
69796;BME280;57073;45.650;9.612;2023-06-10T23:08:14;98923.00;;;19.44;68.36
69796;BME280;57073;45.650;9.612;2023-06-10T23:13:15;98917.25;;;19.59;67.85
69796;BME280;57073;45.650;9.612;2023-06-10T23:18:15;98906.78;;;19.75;67.20
69796;BME280;57073;45.650;9.612;2023-06-10T23:23:16;98910.53;;;19.80;68.32
69796;BME280;57073;45.650;9.612;2023-06-10T23:28:17;98927.97;;;19.70;68.01
69796;BME280;57073;45.650;9.612;2023-06-10T23:33:17;98937.88;;;19.80;67.67
69796;BME280;57073;45.650;9.612;2023-06-10T23:38:18;98928.97;;;19.60;68.21
69796;BME280;57073;45.650;9.612;2023-06-10T23:43:18;98924.72;;;19.68;68.84
69796;BME280;57073;45.650;9.612;2023-06-10T23:48:18;98914.81;;;19.58;68.61
69796;BME280;57073;45.650;9.612;2023-06-10T23:53:19;98921.81;;;19.50;68.04
69796;BME280;57073;45.650;9.612;2023-06-10T23:58:19;98909.03;;;19.46;70.36
